sensor_id;sensor_type;location;lat;lon;timestamp;P1;durP1;ratioP1;P2;durP2;ratioP2
20138;SDS011;10230;51.502;10.800;2023-07-13T00:01:47;1.63;;;0.57;;
20138;SDS011;10230;51.502;10.800;2023-07-13T00:04:15;1.15;;;0.60;;
20138;SDS011;10230;51.502;10.800;2023-07-13T00:06:42;1.13;;;0.63;;
20138;SDS011;10230;51.502;10.800;2023-07-13T00:09:10;1.42;;;0.57;;
20138;SDS011;10230;51.502;10.800;2023-07-13T00:11:37;4.30;;;0.77;;
20138;SDS011;10230;51.502;10.800;2023-07-13T00:14:03;1.85;;;1.10;;
20138;SDS011;10230;51.502;10.800;2023-07-13T00:16:29;4.18;;;0.70;;
20138;SDS011;10230;51.502;10.800;2023-07-13T00:18:56;2.08;;;0.70;;
20138;SDS011;10230;51.502;10.800;2023-07-13T00:21:22;0.80;;;0.60;;
20138;SDS011;10230;51.502;10.800;2023-07-13T00:23:48;1.30;;;0.65;;
20138;SDS011;10230;51.502;10.800;2023-07-13T00:26:14;0.85;;;0.63;;
20138;SDS011;10230;51.502;10.800;2023-07-13T00:28:40;0.95;;;0.77;;
20138;SDS011;10230;51.502;10.800;2023-07-13T00:31:07;0.88;;;0.60;;
20138;SDS011;10230;51.502;10.800;2023-07-13T00:33:33;1.27;;;0.50;;
20138;SDS011;10230;51.502;10.800;2023-07-13T00:35:59;1.25;;;0.63;;
20138;SDS011;10230;51.502;10.800;2023-07-13T00:38:25;3.15;;;0.80;;
20138;SDS011;10230;51.502;10.800;2023-07-13T00:40:51;1.40;;;0.63;;
20138;SDS011;10230;51.502;10.800;2023-07-13T00:43:18;3.70;;;0.70;;
20138;SDS011;10230;51.502;10.800;2023-07-13T00:48:11;4.28;;;1.02;;
20138;SDS011;10230;51.502;10.800;2023-07-13T00:50:38;1.65;;;0.80;;
20138;SDS011;10230;51.502;10.800;2023-07-13T00:53:05;2.83;;;0.80;;
20138;SDS011;10230;51.502;10.800;2023-07-13T00:55:31;1.00;;;0.80;;
20138;SDS011;10230;51.502;10.800;2023-07-13T00:57:57;1.13;;;0.75;;
20138;SDS011;10230;51.502;10.800;2023-07-13T01:00:24;0.75;;;0.70;;
20138;SDS011;10230;51.502;10.800;2023-07-13T01:02:51;1.40;;;0.80;;
20138;SDS011;10230;51.502;10.800;2023-07-13T01:05:19;1.73;;;0.90;;
20138;SDS011;10230;51.502;10.800;2023-07-13T01:07:45;2.28;;;1.05;;
20138;SDS011;10230;51.502;10.800;2023-07-13T01:10:13;1.42;;;0.80;;
20138;SDS011;10230;51.502;10.800;2023-07-13T01:12:40;3.90;;;1.20;;
20138;SDS011;10230;51.502;10.800;2023-07-13T01:15:32;2.97;;;1.05;;
20138;SDS011;10230;51.502;10.800;2023-07-13T01:17:52;2.47;;;1.20;;
20138;SDS011;10230;51.502;10.800;2023-07-13T01:20:20;4.35;;;1.30;;
20138;SDS011;10230;51.502;10.800;2023-07-13T01:22:46;1.58;;;0.95;;
20138;SDS011;10230;51.502;10.800;2023-07-13T01:25:12;3.20;;;1.40;;
20138;SDS011;10230;51.502;10.800;2023-07-13T01:27:38;4.13;;;1.77;;
20138;SDS011;10230;51.502;10.800;2023-07-13T01:30:06;1.42;;;0.77;;
20138;SDS011;10230;51.502;10.800;2023-07-13T01:32:32;1.83;;;1.00;;
20138;SDS011;10230;51.502;10.800;2023-07-13T01:34:59;2.38;;;1.33;;
20138;SDS011;10230;51.502;10.800;2023-07-13T01:37:25;2.50;;;1.20;;
20138;SDS011;10230;51.502;10.800;2023-07-13T01:39:52;2.80;;;1.48;;
20138;SDS011;10230;51.502;10.800;2023-07-13T01:42:18;4.25;;;1.20;;
20138;SDS011;10230;51.502;10.800;2023-07-13T01:44:44;3.28;;;1.17;;
20138;SDS011;10230;51.502;10.800;2023-07-13T01:47:10;5.82;;;1.63;;
20138;SDS011;10230;51.502;10.800;2023-07-13T01:49:36;2.40;;;1.02;;
20138;SDS011;10230;51.502;10.800;2023-07-13T01:52:03;2.83;;;1.25;;
20138;SDS011;10230;51.502;10.800;2023-07-13T01:54:29;2.58;;;1.10;;
20138;SDS011;10230;51.502;10.800;2023-07-13T01:56:55;1.77;;;1.00;;
20138;SDS011;10230;51.502;10.800;2023-07-13T01:59:21;2.03;;;0.95;;
20138;SDS011;10230;51.502;10.800;2023-07-13T02:01:47;1.83;;;1.00;;
20138;SDS011;10230;51.502;10.800;2023-07-13T02:04:13;3.22;;;1.25;;
20138;SDS011;10230;51.502;10.800;2023-07-13T02:06:39;1.95;;;1.20;;
20138;SDS011;10230;51.502;10.800;2023-07-13T02:09:05;3.05;;;1.25;;
20138;SDS011;10230;51.502;10.800;2023-07-13T02:11:32;3.40;;;1.00;;
20138;SDS011;10230;51.502;10.800;2023-07-13T02:14:01;7.90;;;1.67;;
20138;SDS011;10230;51.502;10.800;2023-07-13T02:16:28;1.40;;;0.90;;
20138;SDS011;10230;51.502;10.800;2023-07-13T02:18:54;2.28;;;1.05;;
20138;SDS011;10230;51.502;10.800;2023-07-13T02:21:21;1.27;;;0.90;;
20138;SDS011;10230;51.502;10.800;2023-07-13T02:23:47;3.83;;;1.10;;
20138;SDS011;10230;51.502;10.800;2023-07-13T02:26:13;2.28;;;1.33;;
20138;SDS011;10230;51.502;10.800;2023-07-13T02:28:39;1.95;;;1.27;;
20138;SDS011;10230;51.502;10.800;2023-07-13T02:31:06;1.45;;;0.98;;
20138;SDS011;10230;51.502;10.800;2023-07-13T02:33:32;1.75;;;0.88;;
20138;SDS011;10230;51.502;10.800;2023-07-13T02:35:58;3.17;;;1.38;;
20138;SDS011;10230;51.502;10.800;2023-07-13T02:38:24;2.97;;;1.10;;
20138;SDS011;10230;51.502;10.800;2023-07-13T02:40:52;3.17;;;1.10;;
20138;SDS011;10230;51.502;10.800;2023-07-13T02:43:18;1.80;;;1.15;;
20138;SDS011;10230;51.502;10.800;2023-07-13T02:45:44;3.42;;;1.23;;
20138;SDS011;10230;51.502;10.800;2023-07-13T02:48:10;1.00;;;0.70;;
20138;SDS011;10230;51.502;10.800;2023-07-13T02:50:36;1.35;;;1.13;;
20138;SDS011;10230;51.502;10.800;2023-07-13T02:53:02;3.95;;;1.15;;
20138;SDS011;10230;51.502;10.800;2023-07-13T02:55:28;1.77;;;1.17;;
20138;SDS011;10230;51.502;10.800;2023-07-13T02:57:54;3.70;;;1.10;;
20138;SDS011;10230;51.502;10.800;2023-07-13T03:00:20;1.95;;;1.08;;
20138;SDS011;10230;51.502;10.800;2023-07-13T03:02:46;1.42;;;0.85;;
20138;SDS011;10230;51.502;10.800;2023-07-13T03:05:12;1.42;;;0.90;;
20138;SDS011;10230;51.502;10.800;2023-07-13T03:07:39;1.65;;;0.82;;
20138;SDS011;10230;51.502;10.800;2023-07-13T03:10:05;2.90;;;1.08;;
20138;SDS011;10230;51.502;10.800;2023-07-13T03:12:32;1.42;;;1.08;;
20138;SDS011;10230;51.502;10.800;2023-07-13T03:14:58;3.17;;;0.90;;
20138;SDS011;10230;51.502;10.800;2023-07-13T03:17:24;3.80;;;1.15;;
20138;SDS011;10230;51.502;10.800;2023-07-13T03:19:50;4.90;;;1.30;;
20138;SDS011;10230;51.502;10.800;2023-07-13T03:22:17;2.40;;;0.90;;
20138;SDS011;10230;51.502;10.800;2023-07-13T03:24:43;1.85;;;0.93;;
20138;SDS011;10230;51.502;10.800;2023-07-13T03:27:10;1.42;;;1.02;;
20138;SDS011;10230;51.502;10.800;2023-07-13T03:29:36;2.90;;;1.13;;
20138;SDS011;10230;51.502;10.800;2023-07-13T03:32:02;2.60;;;1.80;;
20138;SDS011;10230;51.502;10.800;2023-07-13T03:34:29;6.32;;;2.38;;
20138;SDS011;10230;51.502;10.800;2023-07-13T03:36:56;4.22;;;2.38;;
20138;SDS011;10230;51.502;10.800;2023-07-13T03:39:22;6.25;;;2.00;;
20138;SDS011;10230;51.502;10.800;2023-07-13T03:41:48;4.68;;;1.52;;
20138;SDS011;10230;51.502;10.800;2023-07-13T03:44:15;3.25;;;1.17;;
20138;SDS011;10230;51.502;10.800;2023-07-13T03:46:42;4.45;;;1.52;;
20138;SDS011;10230;51.502;10.800;2023-07-13T03:49:08;1.85;;;1.00;;
20138;SDS011;10230;51.502;10.800;2023-07-13T03:51:34;2.17;;;1.25;;
20138;SDS011;10230;51.502;10.800;2023-07-13T03:54:00;3.90;;;1.20;;
20138;SDS011;10230;51.502;10.800;2023-07-13T03:56:27;2.05;;;1.10;;
20138;SDS011;10230;51.502;10.800;2023-07-13T03:58:55;4.25;;;2.03;;
20138;SDS011;10230;51.502;10.800;2023-07-13T04:01:22;4.68;;;1.33;;
20138;SDS011;10230;51.502;10.800;2023-07-13T04:03:48;2.55;;;1.30;;
20138;SDS011;10230;51.502;10.800;2023-07-13T04:06:19;4.05;;;1.40;;
20138;SDS011;10230;51.502;10.800;2023-07-13T04:08:46;2.70;;;1.38;;
20138;SDS011;10230;51.502;10.800;2023-07-13T04:11:12;1.70;;;1.30;;
20138;SDS011;10230;51.502;10.800;2023-07-13T04:13:38;4.18;;;1.58;;
20138;SDS011;10230;51.502;10.800;2023-07-13T04:16:04;2.20;;;1.20;;
20138;SDS011;10230;51.502;10.800;2023-07-13T04:18:30;2.65;;;1.40;;
20138;SDS011;10230;51.502;10.800;2023-07-13T04:20:56;2.50;;;1.38;;
20138;SDS011;10230;51.502;10.800;2023-07-13T04:23:22;2.28;;;1.30;;
20138;SDS011;10230;51.502;10.800;2023-07-13T04:25:49;4.40;;;2.28;;
20138;SDS011;10230;51.502;10.800;2023-07-13T04:28:17;2.75;;;1.40;;
20138;SDS011;10230;51.502;10.800;2023-07-13T04:30:43;3.33;;;1.40;;
20138;SDS011;10230;51.502;10.800;2023-07-13T04:33:10;3.33;;;1.50;;
20138;SDS011;10230;51.502;10.800;2023-07-13T04:35:36;2.75;;;1.60;;
20138;SDS011;10230;51.502;10.800;2023-07-13T04:38:02;3.55;;;1.42;;
20138;SDS011;10230;51.502;10.800;2023-07-13T04:40:28;3.10;;;1.90;;
20138;SDS011;10230;51.502;10.800;2023-07-13T04:42:54;4.47;;;1.63;;
20138;SDS011;10230;51.502;10.800;2023-07-13T04:45:21;2.08;;;1.50;;
20138;SDS011;10230;51.502;10.800;2023-07-13T04:47:49;3.42;;;1.50;;
20138;SDS011;10230;51.502;10.800;2023-07-13T04:50:15;3.20;;;1.50;;
20138;SDS011;10230;51.502;10.800;2023-07-13T04:52:45;3.17;;;1.63;;
20138;SDS011;10230;51.502;10.800;2023-07-13T04:55:11;2.80;;;1.60;;
20138;SDS011;10230;51.502;10.800;2023-07-13T04:57:37;3.67;;;1.80;;
20138;SDS011;10230;51.502;10.800;2023-07-13T05:00:04;2.10;;;1.45;;
20138;SDS011;10230;51.502;10.800;2023-07-13T05:02:30;1.50;;;1.13;;
20138;SDS011;10230;51.502;10.800;2023-07-13T05:04:57;4.65;;;2.05;;
20138;SDS011;10230;51.502;10.800;2023-07-13T05:07:24;3.00;;;2.53;;
20138;SDS011;10230;51.502;10.800;2023-07-13T05:09:50;4.07;;;2.20;;
20138;SDS011;10230;51.502;10.800;2023-07-13T05:12:16;2.80;;;1.67;;
20138;SDS011;10230;51.502;10.800;2023-07-13T05:14:42;5.78;;;2.30;;
20138;SDS011;10230;51.502;10.800;2023-07-13T05:17:09;1.90;;;1.67;;
20138;SDS011;10230;51.502;10.800;2023-07-13T05:19:35;1.63;;;1.50;;
20138;SDS011;10230;51.502;10.800;2023-07-13T05:22:01;1.50;;;1.27;;
20138;SDS011;10230;51.502;10.800;2023-07-13T05:24:29;2.40;;;1.10;;
20138;SDS011;10230;51.502;10.800;2023-07-13T05:26:55;2.65;;;1.58;;
20138;SDS011;10230;51.502;10.800;2023-07-13T05:29:21;3.15;;;2.00;;
20138;SDS011;10230;51.502;10.800;2023-07-13T05:31:48;2.10;;;1.13;;
20138;SDS011;10230;51.502;10.800;2023-07-13T05:34:14;3.15;;;1.38;;
20138;SDS011;10230;51.502;10.800;2023-07-13T05:36:40;2.80;;;1.17;;
20138;SDS011;10230;51.502;10.800;2023-07-13T05:39:06;3.47;;;1.52;;
20138;SDS011;10230;51.502;10.800;2023-07-13T05:41:33;3.20;;;1.58;;
20138;SDS011;10230;51.502;10.800;2023-07-13T05:43:59;3.85;;;1.75;;
20138;SDS011;10230;51.502;10.800;2023-07-13T05:46:25;3.60;;;1.85;;
20138;SDS011;10230;51.502;10.800;2023-07-13T05:48:51;3.65;;;1.67;;
20138;SDS011;10230;51.502;10.800;2023-07-13T05:51:17;3.33;;;1.60;;
20138;SDS011;10230;51.502;10.800;2023-07-13T05:53:43;3.15;;;1.92;;
20138;SDS011;10230;51.502;10.800;2023-07-13T05:56:09;3.80;;;1.85;;
20138;SDS011;10230;51.502;10.800;2023-07-13T05:58:36;6.13;;;2.25;;
20138;SDS011;10230;51.502;10.800;2023-07-13T06:01:04;3.75;;;1.60;;
20138;SDS011;10230;51.502;10.800;2023-07-13T06:03:30;5.32;;;2.15;;
20138;SDS011;10230;51.502;10.800;2023-07-13T06:05:56;4.82;;;2.03;;
20138;SDS011;10230;51.502;10.800;2023-07-13T06:08:22;3.08;;;1.27;;
20138;SDS011;10230;51.502;10.800;2023-07-13T06:10:48;3.10;;;1.20;;
20138;SDS011;10230;51.502;10.800;2023-07-13T06:13:14;2.53;;;1.58;;
20138;SDS011;10230;51.502;10.800;2023-07-13T06:15:40;1.63;;;1.30;;
20138;SDS011;10230;51.502;10.800;2023-07-13T06:18:06;3.45;;;1.48;;
20138;SDS011;10230;51.502;10.800;2023-07-13T06:20:33;3.60;;;1.88;;
20138;SDS011;10230;51.502;10.800;2023-07-13T06:23:00;3.67;;;1.90;;
20138;SDS011;10230;51.502;10.800;2023-07-13T06:25:27;3.35;;;1.75;;
20138;SDS011;10230;51.502;10.800;2023-07-13T06:27:53;2.38;;;1.15;;
20138;SDS011;10230;51.502;10.800;2023-07-13T06:30:19;2.45;;;1.20;;
20138;SDS011;10230;51.502;10.800;2023-07-13T06:32:45;2.80;;;1.63;;
20138;SDS011;10230;51.502;10.800;2023-07-13T06:35:11;3.53;;;0.95;;
20138;SDS011;10230;51.502;10.800;2023-07-13T06:37:38;3.53;;;2.00;;
20138;SDS011;10230;51.502;10.800;2023-07-13T06:40:04;1.92;;;1.27;;
20138;SDS011;10230;51.502;10.800;2023-07-13T06:42:31;2.45;;;1.38;;
20138;SDS011;10230;51.502;10.800;2023-07-13T06:44:57;3.28;;;1.60;;
20138;SDS011;10230;51.502;10.800;2023-07-13T06:47:23;2.35;;;1.20;;
20138;SDS011;10230;51.502;10.800;2023-07-13T06:49:49;2.28;;;1.40;;
20138;SDS011;10230;51.502;10.800;2023-07-13T06:52:15;2.25;;;1.40;;
20138;SDS011;10230;51.502;10.800;2023-07-13T06:54:41;3.85;;;1.15;;
20138;SDS011;10230;51.502;10.800;2023-07-13T06:57:07;5.63;;;1.83;;
20138;SDS011;10230;51.502;10.800;2023-07-13T06:59:33;3.15;;;1.17;;
20138;SDS011;10230;51.502;10.800;2023-07-13T07:01:59;1.85;;;0.63;;
20138;SDS011;10230;51.502;10.800;2023-07-13T07:04:25;5.70;;;1.20;;
20138;SDS011;10230;51.502;10.800;2023-07-13T07:06:52;6.38;;;1.17;;
20138;SDS011;10230;51.502;10.800;2023-07-13T07:09:18;2.47;;;1.00;;
20138;SDS011;10230;51.502;10.800;2023-07-13T07:11:44;4.43;;;1.38;;
20138;SDS011;10230;51.502;10.800;2023-07-13T07:14:10;2.95;;;0.90;;
20138;SDS011;10230;51.502;10.800;2023-07-13T07:16:36;2.60;;;1.15;;
20138;SDS011;10230;51.502;10.800;2023-07-13T07:19:02;4.60;;;1.35;;
20138;SDS011;10230;51.502;10.800;2023-07-13T07:21:28;3.85;;;1.00;;
20138;SDS011;10230;51.502;10.800;2023-07-13T07:23:54;4.18;;;1.17;;
20138;SDS011;10230;51.502;10.800;2023-07-13T07:26:20;4.82;;;1.27;;
20138;SDS011;10230;51.502;10.800;2023-07-13T07:28:46;4.40;;;1.10;;
20138;SDS011;10230;51.502;10.800;2023-07-13T07:31:12;2.10;;;0.80;;
20138;SDS011;10230;51.502;10.800;2023-07-13T07:33:38;3.03;;;1.20;;
20138;SDS011;10230;51.502;10.800;2023-07-13T07:36:04;4.38;;;1.02;;
20138;SDS011;10230;51.502;10.800;2023-07-13T07:38:30;1.42;;;0.80;;
20138;SDS011;10230;51.502;10.800;2023-07-13T07:40:56;3.58;;;0.98;;
20138;SDS011;10230;51.502;10.800;2023-07-13T07:43:22;4.35;;;1.00;;
20138;SDS011;10230;51.502;10.800;2023-07-13T07:45:48;3.03;;;0.93;;
20138;SDS011;10230;51.502;10.800;2023-07-13T07:48:15;4.78;;;0.85;;
20138;SDS011;10230;51.502;10.800;2023-07-13T07:50:41;6.97;;;0.82;;
20138;SDS011;10230;51.502;10.800;2023-07-13T07:53:07;5.22;;;1.30;;
20138;SDS011;10230;51.502;10.800;2023-07-13T07:55:35;4.80;;;1.00;;
20138;SDS011;10230;51.502;10.800;2023-07-13T07:58:01;1.65;;;0.60;;
20138;SDS011;10230;51.502;10.800;2023-07-13T08:00:27;2.40;;;0.98;;
20138;SDS011;10230;51.502;10.800;2023-07-13T08:02:56;2.70;;;0.75;;
20138;SDS011;10230;51.502;10.800;2023-07-13T08:05:22;2.97;;;0.93;;
20138;SDS011;10230;51.502;10.800;2023-07-13T08:07:48;2.97;;;0.90;;
20138;SDS011;10230;51.502;10.800;2023-07-13T08:10:14;3.90;;;0.70;;
20138;SDS011;10230;51.502;10.800;2023-07-13T08:12:40;2.22;;;0.77;;
20138;SDS011;10230;51.502;10.800;2023-07-13T08:15:08;2.90;;;0.80;;
20138;SDS011;10230;51.502;10.800;2023-07-13T08:17:34;2.45;;;0.90;;
20138;SDS011;10230;51.502;10.800;2023-07-13T08:20:00;3.10;;;1.08;;
20138;SDS011;10230;51.502;10.800;2023-07-13T08:22:26;1.98;;;0.63;;
20138;SDS011;10230;51.502;10.800;2023-07-13T08:24:53;4.68;;;0.73;;
20138;SDS011;10230;51.502;10.800;2023-07-13T08:27:25;4.15;;;1.00;;
20138;SDS011;10230;51.502;10.800;2023-07-13T08:29:51;3.33;;;0.70;;
20138;SDS011;10230;51.502;10.800;2023-07-13T08:32:18;4.13;;;0.75;;
20138;SDS011;10230;51.502;10.800;2023-07-13T08:34:45;1.65;;;0.68;;
20138;SDS011;10230;51.502;10.800;2023-07-13T08:37:11;1.88;;;0.60;;
20138;SDS011;10230;51.502;10.800;2023-07-13T08:39:37;1.65;;;0.95;;
20138;SDS011;10230;51.502;10.800;2023-07-13T08:42:07;1.80;;;0.68;;
20138;SDS011;10230;51.502;10.800;2023-07-13T08:47:20;3.53;;;0.70;;
20138;SDS011;10230;51.502;10.800;2023-07-13T08:49:48;2.55;;;1.13;;
20138;SDS011;10230;51.502;10.800;2023-07-13T08:52:24;1.63;;;0.70;;
20138;SDS011;10230;51.502;10.800;2023-07-13T08:54:52;2.88;;;0.77;;
20138;SDS011;10230;51.502;10.800;2023-07-13T08:57:21;2.45;;;0.70;;
20138;SDS011;10230;51.502;10.800;2023-07-13T08:59:55;1.92;;;0.65;;
20138;SDS011;10230;51.502;10.800;2023-07-13T09:05:05;1.77;;;0.52;;
20138;SDS011;10230;51.502;10.800;2023-07-13T09:10:30;1.42;;;0.85;;
20138;SDS011;10230;51.502;10.800;2023-07-13T09:13:29;2.10;;;0.85;;
20138;SDS011;10230;51.502;10.800;2023-07-13T09:16:06;0.70;;;0.60;;
20138;SDS011;10230;51.502;10.800;2023-07-13T09:21:13;1.45;;;0.70;;
20138;SDS011;10230;51.502;10.800;2023-07-13T09:23:41;1.85;;;0.60;;
20138;SDS011;10230;51.502;10.800;2023-07-13T09:26:20;2.28;;;0.70;;
20138;SDS011;10230;51.502;10.800;2023-07-13T09:29:11;2.42;;;0.70;;
20138;SDS011;10230;51.502;10.800;2023-07-13T09:31:42;3.60;;;1.17;;
20138;SDS011;10230;51.502;10.800;2023-07-13T09:34:09;1.10;;;0.40;;
20138;SDS011;10230;51.502;10.800;2023-07-13T09:36:35;0.75;;;0.50;;
20138;SDS011;10230;51.502;10.800;2023-07-13T09:39:08;2.53;;;0.73;;
20138;SDS011;10230;51.502;10.800;2023-07-13T09:44:36;1.55;;;0.77;;
20138;SDS011;10230;51.502;10.800;2023-07-13T09:47:03;1.25;;;0.60;;
20138;SDS011;10230;51.502;10.800;2023-07-13T09:49:33;1.17;;;0.60;;
20138;SDS011;10230;51.502;10.800;2023-07-13T09:52:00;0.75;;;0.70;;
20138;SDS011;10230;51.502;10.800;2023-07-13T09:54:27;2.17;;;0.90;;
20138;SDS011;10230;51.502;10.800;2023-07-13T09:56:59;1.55;;;0.70;;
20138;SDS011;10230;51.502;10.800;2023-07-13T09:59:29;3.08;;;0.85;;
20138;SDS011;10230;51.502;10.800;2023-07-13T10:01:59;1.23;;;0.60;;
20138;SDS011;10230;51.502;10.800;2023-07-13T10:04:33;0.75;;;0.50;;
20138;SDS011;10230;51.502;10.800;2023-07-13T10:07:06;0.73;;;0.55;;
20138;SDS011;10230;51.502;10.800;2023-07-13T10:09:32;1.10;;;0.70;;
20138;SDS011;10230;51.502;10.800;2023-07-13T10:11:58;0.70;;;0.40;;
20138;SDS011;10230;51.502;10.800;2023-07-13T10:14:24;1.45;;;0.80;;
20138;SDS011;10230;51.502;10.800;2023-07-13T10:16:57;3.60;;;0.90;;
20138;SDS011;10230;51.502;10.800;2023-07-13T10:19:27;1.30;;;0.70;;
20138;SDS011;10230;51.502;10.800;2023-07-13T10:24:29;1.50;;;0.80;;
20138;SDS011;10230;51.502;10.800;2023-07-13T10:27:05;2.88;;;1.05;;
20138;SDS011;10230;51.502;10.800;2023-07-13T10:29:45;1.95;;;1.00;;
20138;SDS011;10230;51.502;10.800;2023-07-13T10:32:15;1.75;;;0.57;;
20138;SDS011;10230;51.502;10.800;2023-07-13T10:34:41;1.55;;;0.77;;
20138;SDS011;10230;51.502;10.800;2023-07-13T10:37:15;1.52;;;0.52;;
20138;SDS011;10230;51.502;10.800;2023-07-13T10:39:52;3.72;;;0.85;;
20138;SDS011;10230;51.502;10.800;2023-07-13T10:42:25;2.60;;;0.80;;
20138;SDS011;10230;51.502;10.800;2023-07-13T10:44:52;0.85;;;0.70;;
20138;SDS011;10230;51.502;10.800;2023-07-13T10:47:18;1.83;;;0.60;;
20138;SDS011;10230;51.502;10.800;2023-07-13T10:49:45;1.30;;;0.73;;
20138;SDS011;10230;51.502;10.800;2023-07-13T10:54:58;1.48;;;0.52;;
20138;SDS011;10230;51.502;10.800;2023-07-13T10:57:25;1.38;;;0.80;;
20138;SDS011;10230;51.502;10.800;2023-07-13T11:02:42;2.20;;;0.70;;
20138;SDS011;10230;51.502;10.800;2023-07-13T11:05:25;0.63;;;0.43;;
20138;SDS011;10230;51.502;10.800;2023-07-13T11:07:54;2.53;;;0.82;;
20138;SDS011;10230;51.502;10.800;2023-07-13T11:18:48;2.90;;;0.57;;
20138;SDS011;10230;51.502;10.800;2023-07-13T11:23:42;1.48;;;0.50;;
20138;SDS011;10230;51.502;10.800;2023-07-13T11:31:57;1.13;;;0.70;;
20138;SDS011;10230;51.502;10.800;2023-07-13T11:34:26;1.00;;;0.50;;
20138;SDS011;10230;51.502;10.800;2023-07-13T11:36:59;1.30;;;0.88;;
20138;SDS011;10230;51.502;10.800;2023-07-13T11:39:32;0.82;;;0.50;;
20138;SDS011;10230;51.502;10.800;2023-07-13T11:42:05;0.68;;;0.60;;
20138;SDS011;10230;51.502;10.800;2023-07-13T11:44:34;1.02;;;0.47;;
20138;SDS011;10230;51.502;10.800;2023-07-13T11:47:07;1.10;;;0.60;;
20138;SDS011;10230;51.502;10.800;2023-07-13T11:49:42;0.98;;;0.70;;
20138;SDS011;10230;51.502;10.800;2023-07-13T11:52:15;0.90;;;0.68;;
20138;SDS011;10230;51.502;10.800;2023-07-13T11:54:46;3.00;;;0.82;;
20138;SDS011;10230;51.502;10.800;2023-07-13T11:57:23;1.45;;;0.90;;
20138;SDS011;10230;51.502;10.800;2023-07-13T11:59:51;2.22;;;0.80;;
20138;SDS011;10230;51.502;10.800;2023-07-13T12:02:22;2.42;;;0.70;;
20138;SDS011;10230;51.502;10.800;2023-07-13T12:04:56;2.03;;;0.90;;
20138;SDS011;10230;51.502;10.800;2023-07-13T12:07:22;4.70;;;0.73;;
20138;SDS011;10230;51.502;10.800;2023-07-13T12:09:48;4.10;;;0.98;;
20138;SDS011;10230;51.502;10.800;2023-07-13T12:12:21;3.13;;;1.02;;
20138;SDS011;10230;51.502;10.800;2023-07-13T12:14:51;3.47;;;1.00;;
20138;SDS011;10230;51.502;10.800;2023-07-13T12:17:21;0.50;;;0.50;;
20138;SDS011;10230;51.502;10.800;2023-07-13T12:19:51;0.93;;;0.50;;
20138;SDS011;10230;51.502;10.800;2023-07-13T12:22:19;0.90;;;0.47;;
20138;SDS011;10230;51.502;10.800;2023-07-13T12:24:45;1.15;;;0.80;;
20138;SDS011;10230;51.502;10.800;2023-07-13T12:27:27;1.90;;;0.68;;
20138;SDS011;10230;51.502;10.800;2023-07-13T12:32:26;0.80;;;0.57;;
20138;SDS011;10230;51.502;10.800;2023-07-13T12:34:55;1.58;;;1.00;;
20138;SDS011;10230;51.502;10.800;2023-07-13T12:37:51;1.95;;;1.33;;
20138;SDS011;10230;51.502;10.800;2023-07-13T12:40:32;2.10;;;1.02;;
20138;SDS011;10230;51.502;10.800;2023-07-13T12:42:59;0.55;;;0.47;;
20138;SDS011;10230;51.502;10.800;2023-07-13T12:45:29;1.73;;;0.80;;
20138;SDS011;10230;51.502;10.800;2023-07-13T12:48:03;1.02;;;0.70;;
20138;SDS011;10230;51.502;10.800;2023-07-13T12:50:36;0.98;;;0.55;;
20138;SDS011;10230;51.502;10.800;2023-07-13T12:53:03;4.10;;;0.80;;
20138;SDS011;10230;51.502;10.800;2023-07-13T12:55:32;0.88;;;0.60;;
20138;SDS011;10230;51.502;10.800;2023-07-13T12:58:06;2.30;;;0.47;;
20138;SDS011;10230;51.502;10.800;2023-07-13T13:00:33;2.53;;;0.75;;
20138;SDS011;10230;51.502;10.800;2023-07-13T13:03:05;2.17;;;0.40;;
20138;SDS011;10230;51.502;10.800;2023-07-13T13:05:31;1.45;;;0.75;;
20138;SDS011;10230;51.502;10.800;2023-07-13T13:07:58;1.33;;;0.60;;
20138;SDS011;10230;51.502;10.800;2023-07-13T13:10:24;0.63;;;0.40;;
20138;SDS011;10230;51.502;10.800;2023-07-13T13:12:51;2.42;;;0.93;;
20138;SDS011;10230;51.502;10.800;2023-07-13T13:15:18;2.25;;;0.70;;
20138;SDS011;10230;51.502;10.800;2023-07-13T13:17:44;1.92;;;0.70;;
20138;SDS011;10230;51.502;10.800;2023-07-13T13:20:17;1.35;;;0.70;;
20138;SDS011;10230;51.502;10.800;2023-07-13T13:22:43;1.17;;;0.68;;
20138;SDS011;10230;51.502;10.800;2023-07-13T13:25:10;1.80;;;0.88;;
20138;SDS011;10230;51.502;10.800;2023-07-13T13:27:36;1.27;;;0.60;;
20138;SDS011;10230;51.502;10.800;2023-07-13T13:30:02;1.55;;;0.90;;
20138;SDS011;10230;51.502;10.800;2023-07-13T13:32:30;1.30;;;0.50;;
20138;SDS011;10230;51.502;10.800;2023-07-13T13:34:56;1.05;;;0.60;;
20138;SDS011;10230;51.502;10.800;2023-07-13T13:37:22;2.17;;;0.68;;
20138;SDS011;10230;51.502;10.800;2023-07-13T13:39:51;1.10;;;0.70;;
20138;SDS011;10230;51.502;10.800;2023-07-13T13:42:18;1.98;;;0.70;;
20138;SDS011;10230;51.502;10.800;2023-07-13T13:44:46;1.85;;;0.73;;
20138;SDS011;10230;51.502;10.800;2023-07-13T13:47:31;2.58;;;0.98;;
20138;SDS011;10230;51.502;10.800;2023-07-13T13:49:58;0.63;;;0.50;;
20138;SDS011;10230;51.502;10.800;2023-07-13T13:52:25;0.95;;;0.45;;
20138;SDS011;10230;51.502;10.800;2023-07-13T13:54:51;1.10;;;0.52;;
20138;SDS011;10230;51.502;10.800;2023-07-13T13:57:22;1.70;;;0.50;;
20138;SDS011;10230;51.502;10.800;2023-07-13T13:59:48;0.47;;;0.38;;
20138;SDS011;10230;51.502;10.800;2023-07-13T14:02:19;1.40;;;0.50;;
20138;SDS011;10230;51.502;10.800;2023-07-13T14:04:55;1.15;;;0.60;;
20138;SDS011;10230;51.502;10.800;2023-07-13T14:07:22;3.22;;;0.65;;
20138;SDS011;10230;51.502;10.800;2023-07-13T14:09:48;1.58;;;0.50;;
20138;SDS011;10230;51.502;10.800;2023-07-13T14:12:15;0.65;;;0.40;;
20138;SDS011;10230;51.502;10.800;2023-07-13T14:14:41;1.20;;;0.55;;
20138;SDS011;10230;51.502;10.800;2023-07-13T14:17:15;0.65;;;0.40;;
20138;SDS011;10230;51.502;10.800;2023-07-13T14:19:44;1.83;;;0.73;;
20138;SDS011;10230;51.502;10.800;2023-07-13T14:22:10;1.15;;;0.75;;
20138;SDS011;10230;51.502;10.800;2023-07-13T14:24:36;2.03;;;0.82;;
20138;SDS011;10230;51.502;10.800;2023-07-13T14:27:02;1.00;;;0.60;;
20138;SDS011;10230;51.502;10.800;2023-07-13T14:29:28;1.10;;;0.65;;
20138;SDS011;10230;51.502;10.800;2023-07-13T14:31:57;1.23;;;0.70;;
20138;SDS011;10230;51.502;10.800;2023-07-13T14:34:23;0.98;;;0.60;;
20138;SDS011;10230;51.502;10.800;2023-07-13T14:36:49;1.83;;;0.68;;
20138;SDS011;10230;51.502;10.800;2023-07-13T14:41:42;1.40;;;0.60;;
20138;SDS011;10230;51.502;10.800;2023-07-13T14:44:11;1.30;;;0.60;;
20138;SDS011;10230;51.502;10.800;2023-07-13T14:46:38;1.48;;;0.70;;
20138;SDS011;10230;51.502;10.800;2023-07-13T14:51:48;1.35;;;0.63;;
20138;SDS011;10230;51.502;10.800;2023-07-13T14:54:14;2.05;;;0.82;;
20138;SDS011;10230;51.502;10.800;2023-07-13T14:56:40;3.65;;;0.75;;
20138;SDS011;10230;51.502;10.800;2023-07-13T14:59:06;1.70;;;0.73;;
20138;SDS011;10230;51.502;10.800;2023-07-13T15:01:34;1.88;;;1.08;;
20138;SDS011;10230;51.502;10.800;2023-07-13T15:04:00;2.22;;;0.82;;
20138;SDS011;10230;51.502;10.800;2023-07-13T15:06:26;1.17;;;0.50;;
20138;SDS011;10230;51.502;10.800;2023-07-13T15:08:53;0.75;;;0.50;;
20138;SDS011;10230;51.502;10.800;2023-07-13T15:11:20;1.58;;;0.80;;
20138;SDS011;10230;51.502;10.800;2023-07-13T15:13:47;1.30;;;0.70;;
20138;SDS011;10230;51.502;10.800;2023-07-13T15:16:17;1.17;;;0.70;;
20138;SDS011;10230;51.502;10.800;2023-07-13T15:18:44;2.40;;;0.98;;
20138;SDS011;10230;51.502;10.800;2023-07-13T15:21:11;1.00;;;0.68;;
20138;SDS011;10230;51.502;10.800;2023-07-13T15:23:41;3.03;;;0.50;;
20138;SDS011;10230;51.502;10.800;2023-07-13T15:26:10;1.08;;;0.70;;